Terminal Aerodrome Forecast
Issued by NWS

Home | Current Version | Previous Version | Text Only | Print | Product List | Glossary On
Versions: 1 2 3 4 5 6 7 8 9 10 11 12 13 14 15
328
FTUS43 KICT 251131
TAFSLN
TAF
KSLN 251131Z 2512/2612 33014KT 5SM -RA BR OVC007
      TEMPO 2512/2516 SCT007 OVC020
     FM251700 34013KT P6SM VCSH OVC015
     FM252000 35012KT P6SM OVC020
     FM260000 35009KT P6SM BKN040
     FM260300 34005KT P6SM SCT120
     FM261000 VRB03KT 5SM BR SKC=

USA.gov is the U.S. government's official web portal to all federal, state and local government web resources and services.